createdAt,value
2022-08-03T00:01:45.725Z,6.00
2022-08-03T00:04:13.389Z,6.95
2022-08-03T00:06:41.202Z,5.05
2022-08-03T00:09:09.064Z,4.28
2022-08-03T00:11:37.123Z,6.93
2022-08-03T00:14:06.013Z,4.22
2022-08-03T00:16:33.783Z,3.58
2022-08-03T00:19:01.484Z,3.80
2022-08-03T00:21:29.749Z,4.63
2022-08-03T00:23:57.791Z,4.13
2022-08-03T00:26:25.570Z,2.47
2022-08-03T00:28:53.643Z,5.88
2022-08-03T00:31:40.222Z,3.10
2022-08-03T00:34:09.050Z,6.75
2022-08-03T00:36:36.768Z,6.15
2022-08-03T00:39:04.430Z,3.85
2022-08-03T00:41:32.196Z,2.40
2022-08-03T00:43:59.949Z,5.15
2022-08-03T00:46:27.967Z,3.00
2022-08-03T00:48:55.756Z,2.28
2022-08-03T00:51:23.631Z,3.13
2022-08-03T00:53:51.395Z,4.10
2022-08-03T00:56:20.062Z,2.67
2022-08-03T00:58:47.992Z,2.58
2022-08-03T01:01:15.767Z,2.63
2022-08-03T01:03:45.463Z,2.92
2022-08-03T01:06:26.096Z,2.85
2022-08-03T01:09:12.867Z,2.90
2022-08-03T01:11:59.923Z,4.82
2022-08-03T01:14:42.535Z,6.10
2022-08-03T01:17:23.844Z,1.48
2022-08-03T01:19:55.056Z,2.00
2022-08-03T01:22:50.054Z,1.25
2022-08-03T01:25:23.236Z,1.58
2022-08-03T01:27:51.227Z,1.95
2022-08-03T01:30:19.059Z,1.25
2022-08-03T01:33:10.956Z,1.48
2022-08-03T01:35:57.257Z,3.08
2022-08-03T01:38:31.360Z,2.75
2022-08-03T01:40:59.115Z,3.08
2022-08-03T01:44:26.629Z,3.15
2022-08-03T01:46:20.125Z,3.33
2022-08-03T01:48:48.755Z,2.05
2022-08-03T01:51:17.947Z,2.47
2022-08-03T01:53:45.840Z,1.15
2022-08-03T01:56:17.030Z,1.55
2022-08-03T01:58:46.730Z,1.77
2022-08-03T02:01:17.234Z,5.32
2022-08-03T02:04:00.406Z,5.10
2022-08-03T02:06:59.764Z,1.20
2022-08-03T02:09:22.968Z,1.25
2022-08-03T02:11:52.989Z,0.77
2022-08-03T02:16:51.623Z,1.83
2022-08-03T02:19:19.895Z,1.17
2022-08-03T02:21:55.536Z,2.10
2022-08-03T02:24:25.427Z,1.60
2022-08-03T02:26:56.765Z,2.92
2022-08-03T02:29:40.285Z,5.30
2022-08-03T02:32:12.132Z,2.63
2022-08-03T02:34:42.843Z,1.85
2022-08-03T02:37:12.058Z,1.20
2022-08-03T02:39:43.025Z,2.05
2022-08-03T02:42:12.653Z,1.58
2022-08-03T02:44:43.886Z,1.75
2022-08-03T02:47:12.005Z,1.20
2022-08-03T02:49:50.536Z,2.13
2022-08-03T02:52:23.506Z,1.33
2022-08-03T02:54:55.550Z,2.97
2022-08-03T02:57:26.086Z,2.08
2022-08-03T02:59:58.331Z,3.47
2022-08-03T03:02:26.621Z,1.67
2022-08-03T03:05:56.194Z,1.50
2022-08-03T03:07:52.195Z,1.00
2022-08-03T03:10:26.067Z,1.65
2022-08-03T03:12:57.513Z,2.22
2022-08-03T03:15:27.544Z,1.52
2022-08-03T03:17:55.810Z,2.03
2022-08-03T03:20:29.534Z,2.13
2022-08-03T03:22:59.701Z,1.67
2022-08-03T03:25:27.477Z,2.53
2022-08-03T03:27:55.268Z,1.33
2022-08-03T03:30:25.981Z,2.63
2022-08-03T03:32:53.976Z,2.05
2022-08-03T03:35:21.726Z,4.65
2022-08-03T03:37:49.427Z,3.30
2022-08-03T03:40:19.633Z,1.30
2022-08-03T03:42:47.222Z,1.77
2022-08-03T03:45:15.781Z,3.60
2022-08-03T03:47:43.901Z,1.50
2022-08-03T03:50:11.681Z,1.58
2022-08-03T03:52:39.444Z,1.45
2022-08-03T03:55:07.534Z,1.85
2022-08-03T03:57:35.669Z,1.25
2022-08-03T04:00:03.874Z,4.80
2022-08-03T04:02:32.013Z,1.40
2022-08-03T04:05:17.754Z,2.25
2022-08-03T04:08:18.075Z,3.03
2022-08-03T04:11:01.611Z,1.80
2022-08-03T04:13:39.209Z,1.33
2022-08-03T04:16:08.283Z,3.70
2022-08-03T04:18:37.391Z,2.42
2022-08-03T04:21:10.393Z,1.75
2022-08-03T04:23:43.214Z,2.22
2022-08-03T04:26:13.641Z,1.20
2022-08-03T04:28:43.551Z,3.30
2022-08-03T04:31:11.247Z,1.48
2022-08-03T04:33:40.022Z,3.38
2022-08-03T04:36:11.291Z,3.72
2022-08-03T04:38:47.130Z,2.50
2022-08-03T04:41:15.239Z,1.63
2022-08-03T04:43:43.210Z,1.45
2022-08-03T04:46:11.495Z,2.05
2022-08-03T04:48:42.299Z,2.63
2022-08-03T04:51:13.151Z,1.92
2022-08-03T04:53:43.709Z,1.23
2022-08-03T04:56:12.184Z,2.35
2022-08-03T04:58:40.440Z,3.72
2022-08-03T05:01:08.216Z,1.73
2022-08-03T05:03:35.956Z,1.17
2022-08-03T05:06:11.034Z,4.13
2022-08-03T05:08:46.190Z,1.73
2022-08-03T05:11:16.464Z,2.83
2022-08-03T05:13:45.084Z,4.63
2022-08-03T05:16:12.750Z,2.50
2022-08-03T05:18:41.254Z,3.30
2022-08-03T05:21:09.430Z,2.00
2022-08-03T05:23:38.037Z,2.05
2022-08-03T05:26:05.876Z,1.50
2022-08-03T05:28:33.585Z,2.10
2022-08-03T05:31:01.290Z,3.22
2022-08-03T05:33:28.869Z,4.15
2022-08-03T05:36:03.385Z,1.40
2022-08-03T05:38:34.240Z,1.50
2022-08-03T05:41:22.032Z,0.88
2022-08-03T05:46:23.823Z,2.13
2022-08-03T05:48:51.525Z,1.88
2022-08-03T05:51:19.323Z,2.17
2022-08-03T05:53:46.810Z,3.47
2022-08-03T05:56:16.639Z,1.65
2022-08-03T05:58:46.798Z,2.58
2022-08-03T06:01:14.873Z,2.92
2022-08-03T06:03:42.766Z,2.90
2022-08-03T06:06:11.775Z,2.42
2022-08-03T06:08:39.554Z,1.25
2022-08-03T06:11:07.273Z,2.15
2022-08-03T06:13:35.068Z,1.23
2022-08-03T06:16:02.984Z,3.22
2022-08-03T06:18:30.668Z,1.52
2022-08-03T06:20:58.401Z,1.75
2022-08-03T06:23:53.355Z,1.55
2022-08-03T06:26:23.639Z,2.40
2022-08-03T06:28:53.668Z,3.40
2022-08-03T06:31:32.795Z,1.77
2022-08-03T06:34:33.360Z,1.98
2022-08-03T06:36:51.135Z,5.80
2022-08-03T06:39:20.496Z,1.45
2022-08-03T06:41:50.733Z,1.90
2022-08-03T06:44:18.671Z,3.08
2022-08-03T06:46:47.765Z,2.80
2022-08-03T06:49:15.562Z,0.95
2022-08-03T06:52:04.505Z,0.43
2022-08-03T06:54:33.212Z,1.95
2022-08-03T06:57:04.659Z,2.92
2022-08-03T07:00:06.300Z,1.33
2022-08-03T07:02:21.140Z,0.77
2022-08-03T07:04:52.084Z,2.65
2022-08-03T07:07:20.750Z,1.55
2022-08-03T07:09:57.077Z,1.85
2022-08-03T07:12:26.799Z,3.05
2022-08-03T07:14:59.578Z,5.30
2022-08-03T07:17:28.652Z,0.05
2022-08-03T07:19:57.049Z,0.45
2022-08-03T07:22:27.329Z,0.00
2022-08-03T07:24:55.115Z,0.00
2022-08-03T07:27:22.853Z,0.35
2022-08-03T07:29:50.648Z,0.50
2022-08-03T07:32:18.727Z,0.65
2022-08-03T07:34:46.821Z,4.97
2022-08-03T07:37:14.748Z,1.20
2022-08-03T07:39:42.556Z,0.45
2022-08-03T07:42:10.383Z,0.52
2022-08-03T07:44:39.393Z,0.32
2022-08-03T07:47:07.479Z,2.50
2022-08-03T07:49:41.210Z,0.10
2022-08-03T07:52:28.425Z,0.57
2022-08-03T07:54:58.655Z,0.70
2022-08-03T07:57:29.772Z,0.60
2022-08-03T08:00:01.690Z,2.40
2022-08-03T08:02:30.540Z,0.68
2022-08-03T08:05:02.171Z,0.10
2022-08-03T08:07:32.904Z,0.13
2022-08-03T08:10:00.612Z,0.57
2022-08-03T08:12:28.447Z,0.10
2022-08-03T08:14:56.199Z,0.22
2022-08-03T08:17:26.671Z,0.20
2022-08-03T08:19:54.595Z,0.30
2022-08-03T08:22:30.706Z,1.17
2022-08-03T08:25:01.877Z,1.98
2022-08-03T08:28:30.279Z,1.70
2022-08-03T08:30:22.043Z,0.43
2022-08-03T08:32:50.455Z,0.00
2022-08-03T08:35:19.141Z,0.10
2022-08-03T08:37:51.093Z,0.20
2022-08-03T08:40:21.937Z,0.10
2022-08-03T08:42:58.712Z,1.83
2022-08-03T08:45:27.734Z,0.70
2022-08-03T08:48:06.540Z,0.20
2022-08-03T08:50:38.126Z,0.40
2022-08-03T08:53:17.671Z,0.05
2022-08-03T08:55:58.877Z,0.08
2022-08-03T08:58:30.214Z,0.00
2022-08-03T09:00:58.058Z,0.93
2022-08-03T09:03:29.569Z,0.38
2022-08-03T09:06:01.485Z,0.20
2022-08-03T09:08:30.171Z,0.10
2022-08-03T09:10:57.991Z,0.20
2022-08-03T09:13:25.502Z,0.10
2022-08-03T09:16:19.139Z,0.73
2022-08-03T09:18:48.332Z,0.50
2022-08-03T09:21:31.068Z,1.15
2022-08-03T09:24:03.409Z,0.13
2022-08-03T09:26:33.362Z,0.43
2022-08-03T09:29:14.959Z,0.13
2022-08-03T09:31:47.347Z,0.00
2022-08-03T09:34:18.582Z,0.82
2022-08-03T09:36:48.559Z,0.15
2022-08-03T09:39:18.229Z,0.00
2022-08-03T09:41:48.251Z,0.20
2022-08-03T09:44:25.296Z,0.25
2022-08-03T09:46:57.538Z,1.23
2022-08-03T09:49:27.697Z,0.30
2022-08-03T09:52:37.788Z,0.20
2022-08-03T09:54:43.935Z,3.17
2022-08-03T09:57:22.851Z,0.63
2022-08-03T09:59:53.939Z,0.80
2022-08-03T10:02:30.859Z,1.27
2022-08-03T10:04:58.820Z,0.00
2022-08-03T10:07:26.313Z,1.85
2022-08-03T10:09:56.987Z,0.38
2022-08-03T10:12:25.232Z,2.90
2022-08-03T10:14:52.983Z,4.32
2022-08-03T10:17:21.402Z,1.35
2022-08-03T10:19:51.727Z,1.27
2022-08-03T10:22:28.255Z,0.95
2022-08-03T10:25:16.256Z,0.47
2022-08-03T10:27:48.288Z,0.00
2022-08-03T10:30:18.404Z,0.75
2022-08-03T10:32:55.361Z,3.55
2022-08-03T10:35:23.573Z,0.35
2022-08-03T10:38:02.157Z,2.22
2022-08-03T10:43:23.155Z,2.17
2022-08-03T10:45:53.726Z,2.42
2022-08-03T10:48:21.836Z,0.10
2022-08-03T10:50:50.342Z,0.00
2022-08-03T10:53:20.003Z,0.65
2022-08-03T10:58:53.301Z,2.15
2022-08-03T11:01:59.823Z,1.13
2022-08-03T11:04:30.155Z,1.23
2022-08-03T11:07:17.607Z,0.32
2022-08-03T11:09:56.355Z,2.28
2022-08-03T11:12:32.515Z,0.75
2022-08-03T11:15:02.503Z,1.38
2022-08-03T11:19:59.984Z,0.60
2022-08-03T11:22:54.115Z,1.27
2022-08-03T11:25:53.598Z,1.00
2022-08-03T11:28:29.077Z,0.17
2022-08-03T11:31:39.206Z,0.20
2022-08-03T11:34:10.056Z,0.10
2022-08-03T11:37:14.953Z,0.10
2022-08-03T11:39:46.675Z,0.15
2022-08-03T11:42:23.331Z,0.38
2022-08-03T11:45:01.586Z,0.40
2022-08-03T11:47:30.244Z,0.20
2022-08-03T11:50:02.259Z,0.00
2022-08-03T11:52:37.168Z,0.20
2022-08-03T11:55:10.970Z,0.00
2022-08-03T11:59:00.774Z,0.00
2022-08-03T12:00:31.902Z,0.30
2022-08-03T12:03:06.699Z,0.30
2022-08-03T12:05:38.249Z,0.00
2022-08-03T12:08:07.495Z,0.08
2022-08-03T12:10:35.622Z,0.10
2022-08-03T12:13:06.039Z,0.00
2022-08-03T12:15:59.386Z,0.75
2022-08-03T12:18:27.382Z,0.82
2022-08-03T12:21:08.070Z,0.20
2022-08-03T12:23:37.922Z,0.05
2022-08-03T12:26:11.969Z,0.22
2022-08-03T12:28:49.937Z,0.10
2022-08-03T12:31:20.784Z,0.03
2022-08-03T12:34:08.056Z,0.00
2022-08-03T12:36:36.602Z,0.00
2022-08-03T12:39:08.953Z,0.20
2022-08-03T12:41:41.870Z,0.00
2022-08-03T12:44:10.265Z,0.05
2022-08-03T12:46:43.995Z,0.60
2022-08-03T12:49:19.670Z,0.00
2022-08-03T12:51:47.156Z,0.00
2022-08-03T12:54:24.427Z,0.20
2022-08-03T12:57:02.849Z,0.10
2022-08-03T12:59:40.629Z,0.08
2022-08-03T13:02:31.080Z,0.80
2022-08-03T13:05:00.298Z,0.00
2022-08-03T13:07:27.794Z,0.00
2022-08-03T13:09:56.889Z,0.10
2022-08-03T13:12:27.633Z,0.00
2022-08-03T13:15:00.724Z,1.90
2022-08-03T13:17:28.469Z,0.40
2022-08-03T13:19:56.480Z,3.30
2022-08-03T13:22:26.225Z,0.00
2022-08-03T13:24:58.273Z,0.63
2022-08-03T13:28:04.014Z,0.35
2022-08-03T13:30:13.979Z,0.00
2022-08-03T13:32:56.012Z,1.13
2022-08-03T13:35:24.833Z,0.22
2022-08-03T13:37:52.422Z,2.58
2022-08-03T13:40:20.121Z,0.00
2022-08-03T13:42:51.671Z,0.82
2022-08-03T13:45:22.784Z,0.40
2022-08-03T13:47:50.501Z,0.08
2022-08-03T13:50:20.596Z,0.10
2022-08-03T13:52:53.461Z,0.00
2022-08-03T13:55:21.709Z,0.00
2022-08-03T13:58:02.559Z,0.40
2022-08-03T14:00:33.650Z,0.00
2022-08-03T14:03:17.383Z,0.00
2022-08-03T14:05:45.067Z,0.00
2022-08-03T14:08:13.448Z,0.30
2022-08-03T14:10:43.539Z,0.10
2022-08-03T14:13:18.021Z,0.00
2022-08-03T14:15:50.993Z,0.00
2022-08-03T14:18:28.477Z,0.08
2022-08-03T14:23:34.945Z,0.00
2022-08-03T14:26:03.012Z,0.20
2022-08-03T14:28:30.744Z,0.00
2022-08-03T14:30:58.033Z,0.08
2022-08-03T14:33:25.751Z,0.15
2022-08-03T14:35:53.514Z,0.00
2022-08-03T14:38:21.397Z,0.10
2022-08-03T14:40:49.305Z,0.47
2022-08-03T14:43:18.184Z,0.60
2022-08-03T14:45:46.074Z,0.13
2022-08-03T14:50:34.341Z,0.00
2022-08-03T14:51:01.896Z,0.52
2022-08-03T14:53:31.838Z,0.17
2022-08-03T14:56:00.787Z,0.30
2022-08-03T14:58:28.480Z,0.00
2022-08-03T15:00:56.732Z,0.70
2022-08-03T15:03:25.334Z,0.00
2022-08-03T15:05:54.392Z,0.00
2022-08-03T15:08:22.248Z,0.10
2022-08-03T15:10:50.753Z,0.00
2022-08-03T15:13:18.842Z,3.33
2022-08-03T15:15:46.666Z,0.00
2022-08-03T15:18:14.436Z,0.00
2022-08-03T15:20:45.328Z,2.97
2022-08-03T15:23:14.246Z,0.10
2022-08-03T15:26:04.175Z,0.00
2022-08-03T15:28:30.430Z,0.00
2022-08-03T15:30:58.111Z,0.70
2022-08-03T15:33:25.816Z,0.90
2022-08-03T15:35:53.810Z,0.20
2022-08-03T15:38:26.192Z,0.00
2022-08-03T15:40:59.097Z,0.17
2022-08-03T15:43:29.378Z,0.05
2022-08-03T15:46:27.701Z,0.00
2022-08-03T15:48:45.126Z,0.00
2022-08-03T15:51:12.813Z,0.10
2022-08-03T15:53:40.495Z,1.00
2022-08-03T15:56:14.230Z,0.40
2022-08-03T15:59:09.135Z,0.10
2022-08-03T16:04:01.141Z,0.00
2022-08-03T16:06:34.942Z,0.68
2022-08-03T16:09:23.459Z,8.10
2022-08-03T16:11:55.463Z,0.65
2022-08-03T16:14:32.654Z,0.70
2022-08-03T16:17:05.694Z,0.22
2022-08-03T16:19:33.535Z,1.15
2022-08-03T16:22:01.149Z,0.60
2022-08-03T16:24:28.881Z,0.28
2022-08-03T16:26:56.838Z,1.48
2022-08-03T16:29:24.653Z,0.10
2022-08-03T16:31:52.823Z,0.00
2022-08-03T16:34:20.979Z,0.17
2022-08-03T16:36:48.727Z,2.50
2022-08-03T16:39:16.692Z,0.20
2022-08-03T16:41:54.303Z,0.10
2022-08-03T16:44:30.141Z,0.32
2022-08-03T16:46:58.047Z,0.22
2022-08-03T16:49:52.956Z,0.68
2022-08-03T16:52:13.558Z,0.95
2022-08-03T16:54:44.535Z,2.53
2022-08-03T16:57:31.887Z,1.85
2022-08-03T17:00:10.368Z,0.10
2022-08-03T17:02:38.533Z,0.57
2022-08-03T17:05:06.484Z,0.90
2022-08-03T17:10:03.507Z,4.50
2022-08-03T17:12:36.971Z,2.33
2022-08-03T17:15:05.806Z,3.03
2022-08-03T17:17:47.604Z,3.03
2022-08-03T17:20:29.933Z,2.63
2022-08-03T17:23:02.218Z,1.48
2022-08-03T17:25:51.334Z,1.92
2022-08-03T17:31:23.058Z,3.38
2022-08-03T17:34:01.371Z,1.42
2022-08-03T17:36:53.941Z,2.17
2022-08-03T17:39:21.136Z,2.22
2022-08-03T17:42:00.927Z,2.08
2022-08-03T17:44:38.759Z,1.65
2022-08-03T17:47:11.920Z,2.58
2022-08-03T17:49:46.884Z,2.83
2022-08-03T17:52:48.268Z,2.65
2022-08-03T17:55:57.370Z,1.90
2022-08-03T17:58:19.290Z,2.53
2022-08-03T18:02:00.479Z,1.33
2022-08-03T18:04:03.208Z,4.40
2022-08-03T18:06:55.886Z,1.83
2022-08-03T18:10:05.315Z,1.95
2022-08-03T18:12:27.331Z,5.13
2022-08-03T18:15:01.071Z,3.92
2022-08-03T18:17:55.285Z,2.92
2022-08-03T18:20:34.174Z,4.10
2022-08-03T18:23:11.214Z,3.78
2022-08-03T18:25:58.268Z,3.00
2022-08-03T18:28:30.094Z,3.28
2022-08-03T18:30:58.156Z,3.55
2022-08-03T18:34:16.367Z,6.15
2022-08-03T18:36:22.031Z,10.43
2022-08-03T18:38:59.511Z,9.98
2022-08-03T18:41:32.303Z,7.80
2022-08-03T18:44:08.087Z,11.77
2022-08-03T18:46:37.018Z,8.00
2022-08-03T18:49:14.284Z,6.03
2022-08-03T18:51:47.147Z,5.55
2022-08-03T18:54:50.977Z,14.32
2022-08-03T18:57:30.395Z,8.40
2022-08-03T19:00:12.431Z,10.02
2022-08-03T19:03:12.358Z,16.02
2022-08-03T19:06:05.902Z,11.98
2022-08-03T19:08:50.358Z,11.77
2022-08-03T19:12:12.672Z,7.15
2022-08-03T19:14:28.685Z,9.45
2022-08-03T19:17:07.928Z,8.30
2022-08-03T19:19:43.356Z,6.72
2022-08-03T19:22:16.090Z,7.60
2022-08-03T19:24:47.122Z,9.40
2022-08-03T19:27:15.906Z,6.18
2022-08-03T19:32:36.777Z,9.73
2022-08-03T19:35:05.451Z,9.55
2022-08-03T19:37:41.249Z,6.22
2022-08-03T19:40:12.461Z,6.65
2022-08-03T19:42:44.723Z,6.70
2022-08-03T19:45:14.343Z,7.10
2022-08-03T19:50:37.333Z,9.90
2022-08-03T19:53:13.365Z,8.27
2022-08-03T19:55:49.206Z,9.30
2022-08-03T19:58:24.489Z,4.72
2022-08-03T20:00:56.500Z,6.68
2022-08-03T20:03:28.086Z,4.07
2022-08-03T20:06:12.679Z,7.15
2022-08-03T20:08:44.967Z,2.15
2022-08-03T20:11:16.190Z,7.05
2022-08-03T20:13:51.676Z,6.22
2022-08-03T20:16:19.458Z,6.60
2022-08-03T20:18:47.339Z,8.75
2022-08-03T20:21:15.961Z,4.38
2022-08-03T20:24:01.852Z,4.28
2022-08-03T20:26:31.411Z,7.05
2022-08-03T20:29:09.187Z,11.10
2022-08-03T20:31:38.097Z,3.55
2022-08-03T20:34:07.527Z,6.15
2022-08-03T20:36:37.068Z,4.60
2022-08-03T20:39:07.482Z,2.63
2022-08-03T20:44:04.588Z,5.28
2022-08-03T20:46:46.480Z,4.65
2022-08-03T20:49:24.368Z,3.65
2022-08-03T20:51:53.650Z,6.22
2022-08-03T20:54:29.134Z,7.03
2022-08-03T20:56:59.092Z,6.18
2022-08-03T20:59:38.503Z,9.25
2022-08-03T21:02:19.621Z,5.00
2022-08-03T21:04:57.171Z,7.18
2022-08-03T21:07:25.157Z,4.68
2022-08-03T21:10:16.633Z,3.03
2022-08-03T21:13:09.434Z,6.75
2022-08-03T21:13:10.803Z,11.30
2022-08-03T21:13:15.368Z,6.72
2022-08-03T21:16:11.786Z,7.47
2022-08-03T21:18:38.087Z,4.30
2022-08-03T21:21:07.816Z,3.60
2022-08-03T21:23:45.423Z,4.40
2022-08-03T21:26:17.237Z,4.18
2022-08-03T21:28:47.178Z,3.78
2022-08-03T21:31:19.755Z,2.97
2022-08-03T21:33:53.789Z,3.55
2022-08-03T21:36:21.742Z,3.60
2022-08-03T21:38:56.245Z,1.60
2022-08-03T21:41:28.664Z,7.95
2022-08-03T21:43:56.620Z,2.85
2022-08-03T21:46:24.459Z,1.65
2022-08-03T21:48:55.309Z,2.50
2022-08-03T21:51:26.175Z,4.55
2022-08-03T21:54:03.230Z,1.65
2022-08-03T21:56:44.585Z,2.50
2022-08-03T21:59:17.591Z,7.25
2022-08-03T22:01:49.057Z,2.45
2022-08-03T22:04:50.569Z,7.95
2022-08-03T22:07:10.526Z,4.10
2022-08-03T22:09:38.599Z,4.93
2022-08-03T22:12:06.790Z,3.60
2022-08-03T22:14:34.582Z,4.10
2022-08-03T22:17:03.358Z,3.47
2022-08-03T22:19:34.202Z,4.18
2022-08-03T22:22:06.148Z,4.03
2022-08-03T22:24:38.958Z,3.30
2022-08-03T22:27:24.950Z,3.30
2022-08-03T22:29:54.173Z,2.28
2022-08-03T22:32:22.026Z,5.32
2022-08-03T22:34:53.165Z,4.95
2022-08-03T22:37:24.836Z,4.20
2022-08-03T22:39:52.476Z,4.32
2022-08-03T22:42:21.455Z,2.28
2022-08-03T22:44:51.187Z,6.13
2022-08-03T22:47:22.586Z,3.42
2022-08-03T22:50:32.782Z,5.53
2022-08-03T22:52:43.209Z,7.30
2022-08-03T22:55:24.603Z,6.75
2022-08-03T22:57:55.893Z,5.38
2022-08-03T23:00:26.518Z,8.55
2022-08-03T23:02:56.125Z,6.45
2022-08-03T23:06:02.232Z,7.15
2022-08-03T23:08:23.179Z,3.58
2022-08-03T23:10:52.564Z,7.53
2022-08-03T23:13:20.854Z,5.35
2022-08-03T23:16:01.396Z,5.97
2022-08-03T23:18:37.257Z,6.70
2022-08-03T23:23:43.895Z,9.00
2022-08-03T23:26:15.874Z,7.28
2022-08-03T23:28:46.895Z,6.57
2022-08-03T23:31:15.708Z,9.18
2022-08-03T23:33:48.118Z,6.70
2022-08-03T23:36:30.643Z,5.28
2022-08-03T23:38:59.663Z,6.28
2022-08-03T23:41:27.441Z,5.57
2022-08-03T23:43:56.295Z,6.90
2022-08-03T23:46:26.097Z,5.53
2022-08-03T23:48:56.468Z,5.05
2022-08-03T23:51:55.243Z,4.22
2022-08-03T23:54:22.921Z,2.58
2022-08-03T23:57:24.615Z,2.80
